sensor_id;sensor_type;location;lat;lon;timestamp;pressure;altitude;pressure_sealevel;temperature
68510;BMP180;55512;50.102;19.958;2023-04-25T00:00:33;97555.60;;;12.88
68510;BMP180;55512;50.102;19.958;2023-04-25T00:02:59;97558.80;;;12.82
68510;BMP180;55512;50.102;19.958;2023-04-25T00:05:26;97569.80;;;12.84
68510;BMP180;55512;50.102;19.958;2023-04-25T00:07:52;97567.60;;;12.78
68510;BMP180;55512;50.102;19.958;2023-04-25T00:10:19;97572.40;;;12.68
68510;BMP180;55512;50.102;19.958;2023-04-25T00:12:45;97570.00;;;12.58
68510;BMP180;55512;50.102;19.958;2023-04-25T00:15:11;97573.20;;;12.50
68510;BMP180;55512;50.102;19.958;2023-04-25T00:17:37;97567.00;;;12.40
68510;BMP180;55512;50.102;19.958;2023-04-25T00:20:04;97562.40;;;12.30
68510;BMP180;55512;50.102;19.958;2023-04-25T00:22:36;97565.00;;;12.22
68510;BMP180;55512;50.102;19.958;2023-04-25T00:25:07;97574.20;;;12.20
68510;BMP180;55512;50.102;19.958;2023-04-25T00:27:32;97562.60;;;12.10
68510;BMP180;55512;50.102;19.958;2023-04-25T00:29:58;97570.00;;;12.04
68510;BMP180;55512;50.102;19.958;2023-04-25T00:32:23;97566.80;;;12.00
68510;BMP180;55512;50.102;19.958;2023-04-25T00:34:49;97566.20;;;11.90
68510;BMP180;55512;50.102;19.958;2023-04-25T00:37:14;97564.80;;;11.80
68510;BMP180;55512;50.102;19.958;2023-04-25T00:39:40;97565.00;;;11.80
68510;BMP180;55512;50.102;19.958;2023-04-25T00:42:06;97564.00;;;11.76
68510;BMP180;55512;50.102;19.958;2023-04-25T00:44:34;97567.80;;;11.70
68510;BMP180;55512;50.102;19.958;2023-04-25T00:47:02;97564.40;;;11.70
68510;BMP180;55512;50.102;19.958;2023-04-25T00:49:27;97563.40;;;11.60
68510;BMP180;55512;50.102;19.958;2023-04-25T00:51:54;97567.60;;;11.60
68510;BMP180;55512;50.102;19.958;2023-04-25T00:54:19;97564.60;;;11.52
68510;BMP180;55512;50.102;19.958;2023-04-25T00:56:45;97567.80;;;11.50
68510;BMP180;55512;50.102;19.958;2023-04-25T00:59:11;97567.60;;;11.50
68510;BMP180;55512;50.102;19.958;2023-04-25T01:01:38;97566.80;;;11.40
68510;BMP180;55512;50.102;19.958;2023-04-25T01:04:04;97575.20;;;11.40
68510;BMP180;55512;50.102;19.958;2023-04-25T01:06:30;97574.80;;;11.34
68510;BMP180;55512;50.102;19.958;2023-04-25T01:08:56;97578.20;;;11.30
68510;BMP180;55512;50.102;19.958;2023-04-25T01:11:21;97574.60;;;11.30
68510;BMP180;55512;50.102;19.958;2023-04-25T01:13:47;97570.60;;;11.30
68510;BMP180;55512;50.102;19.958;2023-04-25T01:16:12;97574.80;;;11.30
68510;BMP180;55512;50.102;19.958;2023-04-25T01:18:40;97575.20;;;11.28
68510;BMP180;55512;50.102;19.958;2023-04-25T01:21:11;97574.20;;;11.30
68510;BMP180;55512;50.102;19.958;2023-04-25T01:23:39;97576.40;;;11.24
68510;BMP180;55512;50.102;19.958;2023-04-25T01:26:11;97578.00;;;11.20
68510;BMP180;55512;50.102;19.958;2023-04-25T01:28:39;97583.20;;;11.20
68510;BMP180;55512;50.102;19.958;2023-04-25T01:31:07;97590.20;;;11.20
68510;BMP180;55512;50.102;19.958;2023-04-25T01:33:32;97589.00;;;11.20
68510;BMP180;55512;50.102;19.958;2023-04-25T01:35:58;97587.00;;;11.20
68510;BMP180;55512;50.102;19.958;2023-04-25T01:38:23;97590.00;;;11.20
68510;BMP180;55512;50.102;19.958;2023-04-25T01:40:51;97586.40;;;11.20
68510;BMP180;55512;50.102;19.958;2023-04-25T01:43:17;97588.60;;;11.20
68510;BMP180;55512;50.102;19.958;2023-04-25T01:45:43;97580.60;;;11.20
68510;BMP180;55512;50.102;19.958;2023-04-25T01:48:13;97584.00;;;11.20
68510;BMP180;55512;50.102;19.958;2023-04-25T01:50:40;97583.60;;;11.20
68510;BMP180;55512;50.102;19.958;2023-04-25T01:53:09;97583.00;;;11.20
68510;BMP180;55512;50.102;19.958;2023-04-25T01:55:34;97585.40;;;11.20
68510;BMP180;55512;50.102;19.958;2023-04-25T01:58:02;97585.40;;;11.20
68510;BMP180;55512;50.102;19.958;2023-04-25T02:00:28;97600.80;;;11.18
68510;BMP180;55512;50.102;19.958;2023-04-25T02:02:58;97596.80;;;11.10
68510;BMP180;55512;50.102;19.958;2023-04-25T02:05:23;97599.20;;;11.10
68510;BMP180;55512;50.102;19.958;2023-04-25T02:07:49;97594.60;;;11.10
68510;BMP180;55512;50.102;19.958;2023-04-25T02:10:14;97595.40;;;11.08
68510;BMP180;55512;50.102;19.958;2023-04-25T02:12:40;97597.60;;;11.10
68510;BMP180;55512;50.102;19.958;2023-04-25T02:15:06;97598.00;;;11.10
68510;BMP180;55512;50.102;19.958;2023-04-25T02:17:31;97600.00;;;11.10
68510;BMP180;55512;50.102;19.958;2023-04-25T02:19:57;97598.00;;;11.00
68510;BMP180;55512;50.102;19.958;2023-04-25T02:22:23;97601.40;;;11.00
68510;BMP180;55512;50.102;19.958;2023-04-25T02:24:48;97597.60;;;10.90
68510;BMP180;55512;50.102;19.958;2023-04-25T02:27:13;97601.40;;;10.90
68510;BMP180;55512;50.102;19.958;2023-04-25T02:29:39;97597.60;;;10.84
68510;BMP180;55512;50.102;19.958;2023-04-25T02:32:04;97594.80;;;10.80
68510;BMP180;55512;50.102;19.958;2023-04-25T02:34:30;97593.20;;;10.80
68510;BMP180;55512;50.102;19.958;2023-04-25T02:36:55;97590.80;;;10.80
68510;BMP180;55512;50.102;19.958;2023-04-25T02:39:21;97590.40;;;10.80
68510;BMP180;55512;50.102;19.958;2023-04-25T02:41:47;97588.80;;;10.80
68510;BMP180;55512;50.102;19.958;2023-04-25T02:44:13;97586.20;;;10.74
68510;BMP180;55512;50.102;19.958;2023-04-25T02:46:38;97592.20;;;10.76
68510;BMP180;55512;50.102;19.958;2023-04-25T02:49:04;97592.60;;;10.72
68510;BMP180;55512;50.102;19.958;2023-04-25T02:51:30;97593.20;;;10.70
68510;BMP180;55512;50.102;19.958;2023-04-25T02:53:55;97587.00;;;10.70
68510;BMP180;55512;50.102;19.958;2023-04-25T02:56:21;97590.60;;;10.70
68510;BMP180;55512;50.102;19.958;2023-04-25T02:58:46;97587.20;;;10.70
68510;BMP180;55512;50.102;19.958;2023-04-25T03:01:11;97588.00;;;10.70
68510;BMP180;55512;50.102;19.958;2023-04-25T03:03:37;97582.60;;;10.72
68510;BMP180;55512;50.102;19.958;2023-04-25T03:06:03;97583.00;;;10.76
68510;BMP180;55512;50.102;19.958;2023-04-25T03:08:28;97578.40;;;10.70
68510;BMP180;55512;50.102;19.958;2023-04-25T03:10:58;97582.20;;;10.80
68510;BMP180;55512;50.102;19.958;2023-04-25T03:13:24;97579.80;;;10.80
68510;BMP180;55512;50.102;19.958;2023-04-25T03:15:50;97579.80;;;10.86
68510;BMP180;55512;50.102;19.958;2023-04-25T03:18:15;97579.20;;;10.82
68510;BMP180;55512;50.102;19.958;2023-04-25T03:20:41;97579.80;;;10.80
68510;BMP180;55512;50.102;19.958;2023-04-25T03:23:07;97583.60;;;10.80
68510;BMP180;55512;50.102;19.958;2023-04-25T03:25:32;97576.40;;;10.80
68510;BMP180;55512;50.102;19.958;2023-04-25T03:27:58;97584.80;;;10.80
68510;BMP180;55512;50.102;19.958;2023-04-25T03:30:23;97586.40;;;10.80
68510;BMP180;55512;50.102;19.958;2023-04-25T03:32:49;97587.80;;;10.76
68510;BMP180;55512;50.102;19.958;2023-04-25T03:35:14;97591.20;;;10.80
68510;BMP180;55512;50.102;19.958;2023-04-25T03:37:40;97593.60;;;10.76
68510;BMP180;55512;50.102;19.958;2023-04-25T03:40:06;97594.00;;;10.70
68510;BMP180;55512;50.102;19.958;2023-04-25T03:42:32;97598.00;;;10.70
68510;BMP180;55512;50.102;19.958;2023-04-25T03:44:57;97599.80;;;10.70
68510;BMP180;55512;50.102;19.958;2023-04-25T03:47:22;97606.40;;;10.60
68510;BMP180;55512;50.102;19.958;2023-04-25T03:49:48;97610.00;;;10.60
68510;BMP180;55512;50.102;19.958;2023-04-25T03:52:14;97604.60;;;10.50
68510;BMP180;55512;50.102;19.958;2023-04-25T03:54:40;97605.40;;;10.50
68510;BMP180;55512;50.102;19.958;2023-04-25T03:57:05;97608.20;;;10.40
68510;BMP180;55512;50.102;19.958;2023-04-25T03:59:31;97618.20;;;10.40
68510;BMP180;55512;50.102;19.958;2023-04-25T04:01:56;97614.00;;;10.40
68510;BMP180;55512;50.102;19.958;2023-04-25T04:04:22;97623.60;;;10.30
68510;BMP180;55512;50.102;19.958;2023-04-25T04:06:47;97617.80;;;10.30
68510;BMP180;55512;50.102;19.958;2023-04-25T04:09:13;97620.20;;;10.26
68510;BMP180;55512;50.102;19.958;2023-04-25T04:11:39;97623.60;;;10.20
68510;BMP180;55512;50.102;19.958;2023-04-25T04:14:06;97629.40;;;10.20
68510;BMP180;55512;50.102;19.958;2023-04-25T04:16:31;97633.20;;;10.18
68510;BMP180;55512;50.102;19.958;2023-04-25T04:18:57;97636.20;;;10.10
68510;BMP180;55512;50.102;19.958;2023-04-25T04:21:22;97643.80;;;10.10
68510;BMP180;55512;50.102;19.958;2023-04-25T04:23:48;97652.20;;;10.10
68510;BMP180;55512;50.102;19.958;2023-04-25T04:26:14;97657.40;;;10.00
68510;BMP180;55512;50.102;19.958;2023-04-25T04:28:42;97652.20;;;10.00
68510;BMP180;55512;50.102;19.958;2023-04-25T04:31:10;97652.20;;;10.00
68510;BMP180;55512;50.102;19.958;2023-04-25T04:33:35;97653.20;;;9.96
68510;BMP180;55512;50.102;19.958;2023-04-25T04:36:02;97659.60;;;9.90
68510;BMP180;55512;50.102;19.958;2023-04-25T04:38:29;97663.40;;;9.90
68510;BMP180;55512;50.102;19.958;2023-04-25T04:40:55;97661.20;;;9.90
68510;BMP180;55512;50.102;19.958;2023-04-25T04:43:21;97664.60;;;9.90
68510;BMP180;55512;50.102;19.958;2023-04-25T04:45:48;97663.20;;;9.90
68510;BMP180;55512;50.102;19.958;2023-04-25T04:48:14;97664.00;;;9.90
68510;BMP180;55512;50.102;19.958;2023-04-25T04:50:40;97659.60;;;9.90
68510;BMP180;55512;50.102;19.958;2023-04-25T04:53:06;97664.00;;;9.90
68510;BMP180;55512;50.102;19.958;2023-04-25T04:55:32;97663.80;;;9.90
68510;BMP180;55512;50.102;19.958;2023-04-25T04:57:57;97665.80;;;9.90
68510;BMP180;55512;50.102;19.958;2023-04-25T05:00:23;97665.80;;;9.80
68510;BMP180;55512;50.102;19.958;2023-04-25T05:02:49;97667.60;;;9.86
68510;BMP180;55512;50.102;19.958;2023-04-25T05:05:14;97668.80;;;9.82
68510;BMP180;55512;50.102;19.958;2023-04-25T05:07:39;97666.60;;;9.90
68510;BMP180;55512;50.102;19.958;2023-04-25T05:10:07;97669.40;;;9.90
68510;BMP180;55512;50.102;19.958;2023-04-25T05:12:32;97678.00;;;9.90
68510;BMP180;55512;50.102;19.958;2023-04-25T05:14:58;97671.00;;;9.90
68510;BMP180;55512;50.102;19.958;2023-04-25T05:17:24;97679.00;;;9.90
68510;BMP180;55512;50.102;19.958;2023-04-25T05:19:49;97678.60;;;9.90
68510;BMP180;55512;50.102;19.958;2023-04-25T05:22:15;97676.80;;;9.90
68510;BMP180;55512;50.102;19.958;2023-04-25T05:24:40;97692.40;;;9.90
68510;BMP180;55512;50.102;19.958;2023-04-25T05:27:05;97679.00;;;9.88
68510;BMP180;55512;50.102;19.958;2023-04-25T05:29:31;97682.00;;;9.80
68510;BMP180;55512;50.102;19.958;2023-04-25T05:31:56;97681.80;;;9.80
68510;BMP180;55512;50.102;19.958;2023-04-25T05:34:22;97691.20;;;9.74
68510;BMP180;55512;50.102;19.958;2023-04-25T05:36:47;97691.40;;;9.70
68510;BMP180;55512;50.102;19.958;2023-04-25T05:39:16;97690.60;;;9.70
68510;BMP180;55512;50.102;19.958;2023-04-25T05:41:42;97691.20;;;9.60
68510;BMP180;55512;50.102;19.958;2023-04-25T05:44:08;97690.40;;;9.60
68510;BMP180;55512;50.102;19.958;2023-04-25T05:46:33;97700.40;;;9.60
68510;BMP180;55512;50.102;19.958;2023-04-25T05:48:59;97702.00;;;9.50
68510;BMP180;55512;50.102;19.958;2023-04-25T05:51:24;97703.20;;;9.50
68510;BMP180;55512;50.102;19.958;2023-04-25T05:53:51;97707.80;;;9.50
68510;BMP180;55512;50.102;19.958;2023-04-25T05:56:16;97706.40;;;9.40
68510;BMP180;55512;50.102;19.958;2023-04-25T05:58:42;97714.80;;;9.40
68510;BMP180;55512;50.102;19.958;2023-04-25T06:01:07;97712.40;;;9.40
68510;BMP180;55512;50.102;19.958;2023-04-25T06:03:34;97714.00;;;9.30
68510;BMP180;55512;50.102;19.958;2023-04-25T06:05:59;97711.40;;;9.30
68510;BMP180;55512;50.102;19.958;2023-04-25T06:08:24;97722.00;;;9.30
68510;BMP180;55512;50.102;19.958;2023-04-25T06:10:50;97723.00;;;9.30
68510;BMP180;55512;50.102;19.958;2023-04-25T06:13:16;97722.80;;;9.30
68510;BMP180;55512;50.102;19.958;2023-04-25T06:15:41;97724.00;;;9.30
68510;BMP180;55512;50.102;19.958;2023-04-25T06:18:07;97719.40;;;9.20
68510;BMP180;55512;50.102;19.958;2023-04-25T06:20:32;97726.00;;;9.20
68510;BMP180;55512;50.102;19.958;2023-04-25T06:22:57;97728.00;;;9.20
68510;BMP180;55512;50.102;19.958;2023-04-25T06:25:23;97731.80;;;9.20
68510;BMP180;55512;50.102;19.958;2023-04-25T06:27:48;97727.60;;;9.20
68510;BMP180;55512;50.102;19.958;2023-04-25T06:30:14;97728.00;;;9.26
68510;BMP180;55512;50.102;19.958;2023-04-25T06:32:40;97730.80;;;9.30
68510;BMP180;55512;50.102;19.958;2023-04-25T06:35:06;97728.60;;;9.30
68510;BMP180;55512;50.102;19.958;2023-04-25T06:37:31;97726.60;;;9.30
68510;BMP180;55512;50.102;19.958;2023-04-25T06:39:57;97728.60;;;9.40
68510;BMP180;55512;50.102;19.958;2023-04-25T06:42:22;97730.60;;;9.40
68510;BMP180;55512;50.102;19.958;2023-04-25T06:44:48;97734.00;;;9.50
68510;BMP180;55512;50.102;19.958;2023-04-25T06:47:14;97736.80;;;9.50
68510;BMP180;55512;50.102;19.958;2023-04-25T06:49:40;97736.00;;;9.50
68510;BMP180;55512;50.102;19.958;2023-04-25T06:52:05;97728.20;;;9.50
68510;BMP180;55512;50.102;19.958;2023-04-25T06:54:31;97727.60;;;9.54
68510;BMP180;55512;50.102;19.958;2023-04-25T06:56:56;97730.00;;;9.60
68510;BMP180;55512;50.102;19.958;2023-04-25T06:59:22;97729.60;;;9.60
68510;BMP180;55512;50.102;19.958;2023-04-25T07:01:47;97732.40;;;9.62
68510;BMP180;55512;50.102;19.958;2023-04-25T07:04:13;97729.80;;;9.70
68510;BMP180;55512;50.102;19.958;2023-04-25T07:06:38;97733.80;;;9.70
68510;BMP180;55512;50.102;19.958;2023-04-25T07:09:11;97733.00;;;9.76
68510;BMP180;55512;50.102;19.958;2023-04-25T07:11:36;97733.80;;;9.78
68510;BMP180;55512;50.102;19.958;2023-04-25T07:14:02;97731.80;;;9.80
68510;BMP180;55512;50.102;19.958;2023-04-25T07:16:28;97739.80;;;9.80
68510;BMP180;55512;50.102;19.958;2023-04-25T07:18:54;97732.80;;;9.90
68510;BMP180;55512;50.102;19.958;2023-04-25T07:21:19;97730.20;;;9.90
68510;BMP180;55512;50.102;19.958;2023-04-25T07:23:45;97737.20;;;9.94
68510;BMP180;55512;50.102;19.958;2023-04-25T07:26:10;97745.60;;;9.92
68510;BMP180;55512;50.102;19.958;2023-04-25T07:28:36;97730.60;;;10.00
68510;BMP180;55512;50.102;19.958;2023-04-25T07:31:02;97732.20;;;10.00
68510;BMP180;55512;50.102;19.958;2023-04-25T07:33:28;97743.20;;;10.10
68510;BMP180;55512;50.102;19.958;2023-04-25T07:35:53;97733.20;;;10.14
68510;BMP180;55512;50.102;19.958;2023-04-25T07:38:20;97737.40;;;10.20
68510;BMP180;55512;50.102;19.958;2023-04-25T07:40:45;97739.80;;;10.28
68510;BMP180;55512;50.102;19.958;2023-04-25T07:43:10;97739.80;;;10.30
68510;BMP180;55512;50.102;19.958;2023-04-25T07:45:39;97741.40;;;10.30
68510;BMP180;55512;50.102;19.958;2023-04-25T07:48:05;97743.60;;;10.26
68510;BMP180;55512;50.102;19.958;2023-04-25T07:50:31;97739.00;;;10.26
68510;BMP180;55512;50.102;19.958;2023-04-25T07:52:56;97741.80;;;10.30
68510;BMP180;55512;50.102;19.958;2023-04-25T07:55:22;97744.20;;;10.28
68510;BMP180;55512;50.102;19.958;2023-04-25T07:57:47;97746.60;;;10.30
68510;BMP180;55512;50.102;19.958;2023-04-25T08:00:14;97739.40;;;10.34
68510;BMP180;55512;50.102;19.958;2023-04-25T08:02:40;97734.40;;;10.40
68510;BMP180;55512;50.102;19.958;2023-04-25T08:05:06;97731.80;;;10.40
68510;BMP180;55512;50.102;19.958;2023-04-25T08:07:33;97741.80;;;10.50
68510;BMP180;55512;50.102;19.958;2023-04-25T08:10:00;97737.40;;;10.50
68510;BMP180;55512;50.102;19.958;2023-04-25T08:12:25;97740.20;;;10.50
68510;BMP180;55512;50.102;19.958;2023-04-25T08:14:51;97738.00;;;10.50
68510;BMP180;55512;50.102;19.958;2023-04-25T08:17:16;97744.80;;;10.54
68510;BMP180;55512;50.102;19.958;2023-04-25T08:19:42;97742.80;;;10.50
68510;BMP180;55512;50.102;19.958;2023-04-25T08:22:07;97739.20;;;10.50
68510;BMP180;55512;50.102;19.958;2023-04-25T08:24:33;97736.00;;;10.50
68510;BMP180;55512;50.102;19.958;2023-04-25T08:26:58;97740.00;;;10.40
68510;BMP180;55512;50.102;19.958;2023-04-25T08:29:24;97736.40;;;10.48
68510;BMP180;55512;50.102;19.958;2023-04-25T08:31:51;97736.40;;;10.50
68510;BMP180;55512;50.102;19.958;2023-04-25T08:34:18;97739.80;;;10.50
68510;BMP180;55512;50.102;19.958;2023-04-25T08:36:45;97742.00;;;10.58
68510;BMP180;55512;50.102;19.958;2023-04-25T08:39:11;97741.20;;;10.60
68510;BMP180;55512;50.102;19.958;2023-04-25T08:41:37;97742.00;;;10.60
68510;BMP180;55512;50.102;19.958;2023-04-25T08:44:03;97732.80;;;10.60
68510;BMP180;55512;50.102;19.958;2023-04-25T08:46:30;97745.80;;;10.48
68510;BMP180;55512;50.102;19.958;2023-04-25T08:49:02;97746.80;;;10.40
68510;BMP180;55512;50.102;19.958;2023-04-25T08:51:31;97753.00;;;10.50
68510;BMP180;55512;50.102;19.958;2023-04-25T08:54:10;97753.00;;;10.50
68510;BMP180;55512;50.102;19.958;2023-04-25T08:56:46;97747.00;;;10.40
68510;BMP180;55512;50.102;19.958;2023-04-25T08:59:13;97755.60;;;10.32
68510;BMP180;55512;50.102;19.958;2023-04-25T09:01:39;97763.80;;;10.30
68510;BMP180;55512;50.102;19.958;2023-04-25T09:04:05;97758.40;;;10.30
68510;BMP180;55512;50.102;19.958;2023-04-25T09:06:31;97760.40;;;10.20
68510;BMP180;55512;50.102;19.958;2023-04-25T09:09:05;97767.20;;;10.10
68510;BMP180;55512;50.102;19.958;2023-04-25T09:11:36;97775.00;;;10.14
68510;BMP180;55512;50.102;19.958;2023-04-25T09:14:16;97761.00;;;10.10
68510;BMP180;55512;50.102;19.958;2023-04-25T09:19:32;97771.00;;;10.20
68510;BMP180;55512;50.102;19.958;2023-04-25T09:22:03;97763.60;;;10.20
68510;BMP180;55512;50.102;19.958;2023-04-25T09:27:09;97756.60;;;10.20
68510;BMP180;55512;50.102;19.958;2023-04-25T09:29:37;97762.40;;;10.18
68510;BMP180;55512;50.102;19.958;2023-04-25T09:32:20;97761.40;;;10.10
68510;BMP180;55512;50.102;19.958;2023-04-25T09:34:54;97767.80;;;10.10
68510;BMP180;55512;50.102;19.958;2023-04-25T09:37:23;97760.60;;;10.20
68510;BMP180;55512;50.102;19.958;2023-04-25T09:39:53;97772.60;;;10.30
68510;BMP180;55512;50.102;19.958;2023-04-25T09:42:26;97765.80;;;10.42
68510;BMP180;55512;50.102;19.958;2023-04-25T09:44:56;97771.00;;;10.60
68510;BMP180;55512;50.102;19.958;2023-04-25T09:47:25;97772.40;;;10.70
68510;BMP180;55512;50.102;19.958;2023-04-25T09:49:53;97767.40;;;10.80
68510;BMP180;55512;50.102;19.958;2023-04-25T09:52:27;97766.20;;;10.80
68510;BMP180;55512;50.102;19.958;2023-04-25T09:54:53;97774.20;;;10.88
68510;BMP180;55512;50.102;19.958;2023-04-25T09:57:23;97776.60;;;10.82
68510;BMP180;55512;50.102;19.958;2023-04-25T09:59:52;97762.00;;;10.80
68510;BMP180;55512;50.102;19.958;2023-04-25T10:02:20;97771.20;;;10.80
68510;BMP180;55512;50.102;19.958;2023-04-25T10:04:52;97758.40;;;10.80
68510;BMP180;55512;50.102;19.958;2023-04-25T10:07:28;97756.20;;;10.80
68510;BMP180;55512;50.102;19.958;2023-04-25T10:10:00;97758.80;;;10.90
68510;BMP180;55512;50.102;19.958;2023-04-25T10:12:30;97769.60;;;10.92
68510;BMP180;55512;50.102;19.958;2023-04-25T10:14:59;97767.80;;;10.96
68510;BMP180;55512;50.102;19.958;2023-04-25T10:17:27;97760.80;;;11.00
68510;BMP180;55512;50.102;19.958;2023-04-25T10:19:54;97762.00;;;11.00
68510;BMP180;55512;50.102;19.958;2023-04-25T10:22:31;97763.20;;;11.10
68510;BMP180;55512;50.102;19.958;2023-04-25T10:24:58;97762.40;;;11.10
68510;BMP180;55512;50.102;19.958;2023-04-25T10:27:27;97765.60;;;11.20
68510;BMP180;55512;50.102;19.958;2023-04-25T10:30:10;97758.40;;;11.20
68510;BMP180;55512;50.102;19.958;2023-04-25T10:32:38;97753.40;;;11.20
68510;BMP180;55512;50.102;19.958;2023-04-25T10:35:27;97751.00;;;11.20
68510;BMP180;55512;50.102;19.958;2023-04-25T10:40:23;97754.80;;;11.10
68510;BMP180;55512;50.102;19.958;2023-04-25T10:42:55;97757.00;;;11.10
68510;BMP180;55512;50.102;19.958;2023-04-25T10:45:21;97746.00;;;11.02
68510;BMP180;55512;50.102;19.958;2023-04-25T10:47:47;97748.60;;;11.00
68510;BMP180;55512;50.102;19.958;2023-04-25T10:50:16;97743.40;;;11.00
68510;BMP180;55512;50.102;19.958;2023-04-25T10:52:42;97751.40;;;10.96
68510;BMP180;55512;50.102;19.958;2023-04-25T10:55:08;97745.80;;;10.90
68510;BMP180;55512;50.102;19.958;2023-04-25T10:57:45;97746.80;;;11.00
68510;BMP180;55512;50.102;19.958;2023-04-25T11:00:17;97743.60;;;11.10
68510;BMP180;55512;50.102;19.958;2023-04-25T11:02:52;97740.40;;;11.20
68510;BMP180;55512;50.102;19.958;2023-04-25T11:07:54;97731.00;;;11.30
68510;BMP180;55512;50.102;19.958;2023-04-25T11:10:27;97725.20;;;11.30
68510;BMP180;55512;50.102;19.958;2023-04-25T11:12:53;97728.00;;;11.30
68510;BMP180;55512;50.102;19.958;2023-04-25T11:15:19;97725.60;;;11.30
68510;BMP180;55512;50.102;19.958;2023-04-25T11:17:44;97727.00;;;11.30
68510;BMP180;55512;50.102;19.958;2023-04-25T11:20:12;97723.60;;;11.30
68510;BMP180;55512;50.102;19.958;2023-04-25T11:22:40;97731.60;;;11.40
68510;BMP180;55512;50.102;19.958;2023-04-25T11:25:11;97728.20;;;11.40
68510;BMP180;55512;50.102;19.958;2023-04-25T11:27:56;97731.40;;;11.40
68510;BMP180;55512;50.102;19.958;2023-04-25T11:30:24;97728.60;;;11.50
68510;BMP180;55512;50.102;19.958;2023-04-25T11:32:51;97728.00;;;11.60
68510;BMP180;55512;50.102;19.958;2023-04-25T11:35:18;97724.80;;;11.60
68510;BMP180;55512;50.102;19.958;2023-04-25T11:37:44;97729.40;;;11.70
68510;BMP180;55512;50.102;19.958;2023-04-25T11:40:11;97729.80;;;11.64
68510;BMP180;55512;50.102;19.958;2023-04-25T11:42:39;97732.00;;;11.62
68510;BMP180;55512;50.102;19.958;2023-04-25T11:45:06;97731.00;;;11.70
68510;BMP180;55512;50.102;19.958;2023-04-25T11:47:33;97727.40;;;11.70
68510;BMP180;55512;50.102;19.958;2023-04-25T11:50:00;97721.80;;;11.70
68510;BMP180;55512;50.102;19.958;2023-04-25T11:52:43;97727.20;;;11.70
68510;BMP180;55512;50.102;19.958;2023-04-25T11:55:13;97728.80;;;11.70
68510;BMP180;55512;50.102;19.958;2023-04-25T11:57:41;97734.00;;;11.70
68510;BMP180;55512;50.102;19.958;2023-04-25T12:00:16;97729.20;;;11.70
68510;BMP180;55512;50.102;19.958;2023-04-25T12:02:56;97727.80;;;11.70
68510;BMP180;55512;50.102;19.958;2023-04-25T12:05:31;97730.20;;;11.70
68510;BMP180;55512;50.102;19.958;2023-04-25T12:08:12;97726.60;;;11.70
68510;BMP180;55512;50.102;19.958;2023-04-25T12:10:40;97729.20;;;11.70
68510;BMP180;55512;50.102;19.958;2023-04-25T12:13:26;97724.40;;;11.70
68510;BMP180;55512;50.102;19.958;2023-04-25T12:15:56;97719.00;;;11.70
68510;BMP180;55512;50.102;19.958;2023-04-25T12:18:24;97719.80;;;11.70
68510;BMP180;55512;50.102;19.958;2023-04-25T12:20:53;97717.20;;;11.70
68510;BMP180;55512;50.102;19.958;2023-04-25T12:23:28;97733.40;;;11.70
68510;BMP180;55512;50.102;19.958;2023-04-25T12:25:54;97722.40;;;11.60
68510;BMP180;55512;50.102;19.958;2023-04-25T12:28:25;97738.40;;;11.60
68510;BMP180;55512;50.102;19.958;2023-04-25T12:31:04;97724.40;;;11.50
68510;BMP180;55512;50.102;19.958;2023-04-25T12:33:34;97728.60;;;11.48
68510;BMP180;55512;50.102;19.958;2023-04-25T12:36:02;97726.00;;;11.40
68510;BMP180;55512;50.102;19.958;2023-04-25T12:38:40;97719.80;;;11.36
68510;BMP180;55512;50.102;19.958;2023-04-25T12:41:07;97719.60;;;11.30
68510;BMP180;55512;50.102;19.958;2023-04-25T12:43:33;97718.80;;;11.30
68510;BMP180;55512;50.102;19.958;2023-04-25T12:45:59;97725.20;;;11.30
68510;BMP180;55512;50.102;19.958;2023-04-25T12:48:25;97722.60;;;11.30
68510;BMP180;55512;50.102;19.958;2023-04-25T12:50:51;97729.60;;;11.30
68510;BMP180;55512;50.102;19.958;2023-04-25T12:53:22;97734.60;;;11.28
68510;BMP180;55512;50.102;19.958;2023-04-25T12:55:48;97730.60;;;11.30
68510;BMP180;55512;50.102;19.958;2023-04-25T12:58:18;97724.80;;;11.20
68510;BMP180;55512;50.102;19.958;2023-04-25T13:00:45;97729.60;;;11.10
68510;BMP180;55512;50.102;19.958;2023-04-25T13:03:11;97731.40;;;11.04
68510;BMP180;55512;50.102;19.958;2023-04-25T13:05:38;97737.20;;;11.00
68510;BMP180;55512;50.102;19.958;2023-04-25T13:08:03;97735.00;;;10.92
68510;BMP180;55512;50.102;19.958;2023-04-25T13:10:29;97728.40;;;10.90
68510;BMP180;55512;50.102;19.958;2023-04-25T13:12:55;97738.00;;;10.90
68510;BMP180;55512;50.102;19.958;2023-04-25T13:15:21;97737.40;;;10.90
68510;BMP180;55512;50.102;19.958;2023-04-25T13:17:47;97742.80;;;10.80
68510;BMP180;55512;50.102;19.958;2023-04-25T13:20:13;97740.40;;;10.80
68510;BMP180;55512;50.102;19.958;2023-04-25T13:22:40;97728.40;;;10.80
68510;BMP180;55512;50.102;19.958;2023-04-25T13:25:07;97729.00;;;10.70
68510;BMP180;55512;50.102;19.958;2023-04-25T13:27:34;97733.80;;;10.70
68510;BMP180;55512;50.102;19.958;2023-04-25T13:30:02;97733.80;;;10.80
68510;BMP180;55512;50.102;19.958;2023-04-25T13:32:36;97728.00;;;10.80
68510;BMP180;55512;50.102;19.958;2023-04-25T13:35:08;97732.60;;;10.86
68510;BMP180;55512;50.102;19.958;2023-04-25T13:37:35;97728.20;;;10.90
68510;BMP180;55512;50.102;19.958;2023-04-25T13:40:03;97732.80;;;10.92
68510;BMP180;55512;50.102;19.958;2023-04-25T13:42:33;97735.20;;;11.00
68510;BMP180;55512;50.102;19.958;2023-04-25T13:44:58;97733.20;;;11.10
68510;BMP180;55512;50.102;19.958;2023-04-25T13:47:25;97727.40;;;11.10
68510;BMP180;55512;50.102;19.958;2023-04-25T13:49:51;97731.00;;;11.10
68510;BMP180;55512;50.102;19.958;2023-04-25T13:52:16;97724.40;;;11.20
68510;BMP180;55512;50.102;19.958;2023-04-25T13:54:42;97720.60;;;11.30
68510;BMP180;55512;50.102;19.958;2023-04-25T13:57:07;97726.00;;;11.40
68510;BMP180;55512;50.102;19.958;2023-04-25T13:59:33;97725.60;;;11.40
68510;BMP180;55512;50.102;19.958;2023-04-25T14:01:59;97724.20;;;11.50
68510;BMP180;55512;50.102;19.958;2023-04-25T14:04:25;97728.00;;;11.54
68510;BMP180;55512;50.102;19.958;2023-04-25T14:06:51;97732.20;;;11.60
68510;BMP180;55512;50.102;19.958;2023-04-25T14:09:18;97735.80;;;11.70